Time;durP1;ratioP1;P1;durP2;ratioP2;P2;SDS_P1;SDS_P2;PMS_P1;PMS_P2;Temp;Humidity;BMP_temperature;BMP_pressure;BME280_temperature;BME280_humidity;BME280_pressure;Samples;Min_cycle;Max_cycle;Signal;HPM_P1;HPM_P2
2021/10/06 00:02:21;;;;;;;1.87;1.40;;;9.50;99.90;;;;;;5022270;28;20198;-61
2021/10/06 00:04:47;;;;;;;1.67;1.50;;;9.50;99.90;;;;;;5023525;28;20183;-59
2021/10/06 00:07:12;;;;;;;1.57;1.30;;;9.40;99.90;;;;;;5024569;28;20175;-57
2021/10/06 00:09:38;;;;;;;5.60;1.20;;;9.40;99.90;;;;;;5023041;28;20262;-58
2021/10/06 00:12:04;;;;;;;3.00;1.60;;;9.40;99.90;;;;;;5023856;28;20660;-59
2021/10/06 00:14:30;;;;;;;1.53;1.20;;;9.40;99.90;;;;;;5023339;28;20203;-59
2021/10/06 00:16:55;;;;;;;1.03;1.03;;;9.40;99.90;;;;;;5025637;28;20426;-60
2021/10/06 00:19:21;;;;;;;1.00;1.00;;;9.40;99.90;;;;;;5025509;28;20208;-59
2021/10/06 00:21:47;;;;;;;4.43;1.43;;;9.40;99.90;;;;;;5024534;28;20184;-59
2021/10/06 00:24:12;;;;;;;3.97;1.20;;;9.30;99.90;;;;;;5019580;28;20636;-59
2021/10/06 00:26:40;;;;;;;4.53;1.77;;;9.30;99.90;;;;;;5029284;28;20209;-60
2021/10/06 00:29:08;;;;;;;4.10;1.40;;;9.30;99.90;;;;;;5022314;28;20203;-60
2021/10/06 00:31:34;;;;;;;5.40;1.20;;;9.30;99.90;;;;;;5029451;28;20414;-59
2021/10/06 00:33:59;;;;;;;2.30;1.30;;;9.30;99.90;;;;;;5027285;28;20439;-60
2021/10/06 00:36:25;;;;;;;2.20;1.40;;;9.30;99.90;;;;;;5025913;28;21279;-60
2021/10/06 00:38:51;;;;;;;1.87;1.30;;;9.30;99.90;;;;;;5024981;28;20200;-59
2021/10/06 00:41:16;;;;;;;1.20;1.10;;;9.20;99.90;;;;;;5027325;28;20660;-59
2021/10/06 00:43:42;;;;;;;1.67;1.20;;;9.20;99.90;;;;;;5029764;28;20180;-59
2021/10/06 00:46:08;;;;;;;1.20;1.10;;;9.10;99.90;;;;;;5027869;28;20262;-59
2021/10/06 00:48:33;;;;;;;2.57;1.37;;;9.10;99.90;;;;;;5027365;28;20672;-60
2021/10/06 00:50:59;;;;;;;1.40;1.30;;;9.10;99.90;;;;;;5023832;28;20230;-59
2021/10/06 00:53:28;;;;;;;2.57;1.37;;;9.00;99.90;;;;;;5021783;28;20185;-60
2021/10/06 00:55:55;;;;;;;2.10;1.10;;;9.00;99.90;;;;;;5017324;28;20200;-59
2021/10/06 00:58:22;;;;;;;6.33;1.47;;;9.00;99.90;;;;;;5014472;28;20460;-59
2021/10/06 01:00:48;;;;;;;1.20;1.13;;;9.00;99.90;;;;;;5023640;28;20443;-60
2021/10/06 01:03:14;;;;;;;2.20;1.20;;;8.90;99.90;;;;;;5012279;28;20943;-60
2021/10/06 01:05:40;;;;;;;1.27;1.17;;;8.90;99.90;;;;;;5017981;28;20414;-59
2021/10/06 01:08:07;;;;;;;1.40;1.30;;;8.90;99.90;;;;;;5020565;28;20454;-60
2021/10/06 01:10:33;;;;;;;1.27;1.10;;;8.90;99.90;;;;;;5028113;28;20422;-59
2021/10/06 01:12:59;;;;;;;3.73;1.20;;;8.90;99.90;;;;;;5025026;28;20448;-59
2021/10/06 01:15:26;;;;;;;12.20;1.40;;;8.80;99.90;;;;;;5032324;28;20700;-59
2021/10/06 01:17:52;;;;;;;1.20;1.10;;;8.80;99.90;;;;;;5023663;28;20470;-60
2021/10/06 01:20:18;;;;;;;2.17;1.30;;;8.70;99.90;;;;;;5029340;28;20501;-59
2021/10/06 01:22:44;;;;;;;1.30;1.20;;;8.70;99.90;;;;;;5031051;28;20172;-59
2021/10/06 01:25:13;;;;;;;5.23;1.40;;;8.60;99.90;;;;;;5030306;28;20429;-59
2021/10/06 01:27:39;;;;;;;1.67;1.03;;;8.60;99.90;;;;;;5024696;28;20465;-59
2021/10/06 01:30:08;;;;;;;3.13;1.37;;;8.60;99.90;;;;;;5023263;28;20445;-60
2021/10/06 01:32:36;;;;;;;2.70;1.53;;;8.60;99.90;;;;;;5030848;28;20184;-59
2021/10/06 01:35:03;;;;;;;1.70;1.17;;;8.50;99.90;;;;;;5025594;28;20833;-59
2021/10/06 01:37:29;;;;;;;3.37;1.57;;;8.50;99.90;;;;;;5038695;28;20727;-59
2021/10/06 01:39:55;;;;;;;1.60;1.50;;;8.50;99.90;;;;;;5030875;28;21074;-60
2021/10/06 01:42:21;;;;;;;6.63;1.70;;;8.50;99.90;;;;;;5028586;28;20564;-59
2021/10/06 01:44:48;;;;;;;2.33;1.90;;;8.50;99.90;;;;;;5028624;28;20191;-59
2021/10/06 01:47:24;;;;;;;2.03;1.63;;;8.50;99.90;;;;;;5024167;28;20454;-60
2021/10/06 01:49:51;;;;;;;1.77;1.67;;;8.40;99.90;;;;;;5036518;28;20986;-59
2021/10/06 01:52:18;;;;;;;3.00;1.60;;;8.40;99.90;;;;;;5031693;28;20477;-59
2021/10/06 01:54:44;;;;;;;1.40;1.30;;;8.30;99.90;;;;;;5017939;28;20462;-59
2021/10/06 01:57:09;;;;;;;2.83;1.10;;;8.30;99.90;;;;;;5030492;28;20774;-62
2021/10/06 01:59:35;;;;;;;1.40;1.20;;;8.20;99.90;;;;;;5031196;28;20226;-59
2021/10/06 02:02:01;;;;;;;1.20;1.10;;;8.20;99.90;;;;;;5052533;28;20172;-59
2021/10/06 02:04:27;;;;;;;1.90;1.20;;;8.20;99.90;;;;;;5030548;28;20441;-59
2021/10/06 02:06:52;;;;;;;1.00;1.00;;;8.10;99.90;;;;;;5028067;28;20184;-59
2021/10/06 02:09:18;;;;;;;2.73;1.63;;;8.10;99.90;;;;;;5029176;28;20212;-59
2021/10/06 02:11:43;;;;;;;2.83;1.13;;;8.00;99.90;;;;;;5043650;28;20218;-60
2021/10/06 02:14:09;;;;;;;1.90;1.20;;;7.90;99.90;;;;;;5025678;28;20218;-59
2021/10/06 02:16:35;;;;;;;4.70;1.20;;;7.90;99.90;;;;;;5026444;28;20172;-59
2021/10/06 02:19:00;;;;;;;1.10;1.07;;;7.80;99.90;;;;;;5036823;28;20219;-59
2021/10/06 02:21:26;;;;;;;3.20;1.20;;;7.70;99.90;;;;;;5024335;28;20180;-59
2021/10/06 02:23:51;;;;;;;1.30;1.20;;;7.70;99.90;;;;;;5026841;28;20207;-59
2021/10/06 02:26:17;;;;;;;1.30;1.20;;;7.60;99.90;;;;;;5020114;28;20234;-59
2021/10/06 02:28:42;;;;;;;4.43;1.70;;;7.60;99.90;;;;;;5042502;28;20660;-59
2021/10/06 02:31:08;;;;;;;1.00;1.00;;;7.60;99.90;;;;;;5028653;28;20180;-60
2021/10/06 02:33:34;;;;;;;3.67;1.40;;;7.60;99.90;;;;;;5027671;28;20172;-59
2021/10/06 02:35:59;;;;;;;4.07;1.37;;;7.50;99.90;;;;;;5026689;28;20585;-60
2021/10/06 02:38:25;;;;;;;1.30;1.20;;;7.50;99.90;;;;;;5028015;28;20192;-60
2021/10/06 02:40:51;;;;;;;1.30;1.20;;;7.50;99.90;;;;;;5026189;28;20207;-60
2021/10/06 02:43:16;;;;;;;3.47;1.70;;;7.50;99.90;;;;;;5027576;28;20176;-59
2021/10/06 02:45:42;;;;;;;1.60;1.50;;;7.50;99.90;;;;;;5026141;28;20212;-59
2021/10/06 02:48:08;;;;;;;4.10;1.40;;;7.50;99.90;;;;;;5028086;28;20227;-59
2021/10/06 02:50:33;;;;;;;2.80;1.73;;;7.50;99.90;;;;;;5027158;28;20654;-59
2021/10/06 02:52:59;;;;;;;2.60;1.53;;;7.60;99.90;;;;;;5027094;28;20172;-59
2021/10/06 02:55:25;;;;;;;1.43;1.30;;;7.60;99.90;;;;;;5025148;28;20192;-59
2021/10/06 02:57:50;;;;;;;1.53;1.43;;;7.50;99.90;;;;;;5025825;28;20243;-58
2021/10/06 03:00:16;;;;;;;1.87;1.13;;;7.50;99.90;;;;;;5028131;28;20187;-59
2021/10/06 03:02:42;;;;;;;1.40;1.30;;;7.40;99.90;;;;;;5027031;28;20178;-59
2021/10/06 03:05:10;;;;;;;2.20;1.50;;;7.40;99.90;;;;;;5025508;28;20900;-60
2021/10/06 03:07:36;;;;;;;3.03;1.43;;;7.30;99.90;;;;;;5028550;28;20447;-59
2021/10/06 03:10:04;;;;;;;1.50;1.40;;;7.20;99.90;;;;;;5027230;28;20431;-60
2021/10/06 03:12:30;;;;;;;3.90;1.70;;;7.20;99.90;;;;;;5025451;28;20422;-60
2021/10/06 03:14:55;;;;;;;2.93;1.70;;;7.20;99.90;;;;;;5026280;28;20467;-59
2021/10/06 03:17:21;;;;;;;4.13;1.50;;;7.10;99.90;;;;;;5028703;28;20187;-60
2021/10/06 03:19:46;;;;;;;4.53;1.80;;;7.10;99.90;;;;;;5027659;28;20290;-59
2021/10/06 03:22:12;;;;;;;2.60;1.73;;;7.20;99.90;;;;;;5028517;28;20206;-60
2021/10/06 03:24:38;;;;;;;4.10;1.93;;;7.20;99.90;;;;;;5024344;28;20194;-59
2021/10/06 03:27:04;;;;;;;2.07;1.70;;;7.20;99.90;;;;;;5026692;28;20234;-58
2021/10/06 03:29:30;;;;;;;1.90;1.50;;;7.20;99.90;;;;;;5024223;28;20219;-59
2021/10/06 03:31:55;;;;;;;3.00;1.63;;;7.20;99.90;;;;;;5026175;28;21064;-59
2021/10/06 03:34:21;;;;;;;2.50;1.80;;;7.30;99.90;;;;;;5021849;28;20291;-59
2021/10/06 03:36:47;;;;;;;4.00;1.90;;;7.30;99.90;;;;;;5025566;28;20594;-59
2021/10/06 03:39:12;;;;;;;2.57;2.13;;;7.30;99.90;;;;;;5027205;28;20195;-59
2021/10/06 03:41:38;;;;;;;3.33;1.90;;;7.30;99.90;;;;;;5025787;28;20271;-59
2021/10/06 03:44:04;;;;;;;3.80;1.93;;;7.30;99.90;;;;;;5025758;28;20431;-59
2021/10/06 03:46:30;;;;;;;3.63;2.20;;;7.20;99.90;;;;;;5024313;28;20203;-59
2021/10/06 03:48:55;;;;;;;3.20;1.80;;;7.20;99.90;;;;;;5027807;28;20539;-59
2021/10/06 03:51:21;;;;;;;4.00;2.10;;;7.10;99.90;;;;;;5017747;28;20229;-59
2021/10/06 03:53:46;;;;;;;3.20;2.20;;;7.10;99.90;;;;;;5017434;28;20241;-59
2021/10/06 03:56:12;;;;;;;2.90;1.80;;;7.10;99.90;;;;;;5018443;28;20194;-60
2021/10/06 03:58:38;;;;;;;3.17;2.23;;;7.00;99.90;;;;;;5015689;28;20716;-59
2021/10/06 04:01:03;;;;;;;2.80;1.93;;;7.00;99.90;;;;;;5021783;28;20219;-59
2021/10/06 04:03:29;;;;;;;2.10;1.90;;;7.00;99.90;;;;;;5042019;28;20180;-57
2021/10/06 04:05:55;;;;;;;1.80;1.70;;;7.00;99.90;;;;;;5022936;28;20570;-55
2021/10/06 04:08:20;;;;;;;3.73;1.90;;;7.00;99.90;;;;;;5021592;28;20254;-59
2021/10/06 04:10:46;;;;;;;3.40;2.17;;;7.00;99.90;;;;;;5020233;28;20306;-59
2021/10/06 04:13:12;;;;;;;2.27;2.00;;;7.10;99.90;;;;;;5019420;28;20183;-58
2021/10/06 04:15:37;;;;;;;2.20;2.00;;;7.10;99.90;;;;;;5018801;28;20290;-59
2021/10/06 04:18:05;;;;;;;5.40;1.77;;;7.10;99.90;;;;;;5020757;28;20235;-58
2021/10/06 04:20:32;;;;;;;1.80;1.63;;;7.20;99.90;;;;;;5025271;28;20171;-58
2021/10/06 04:22:57;;;;;;;3.47;1.93;;;7.20;99.90;;;;;;5018815;28;20431;-59
2021/10/06 04:25:23;;;;;;;2.77;1.47;;;7.20;99.90;;;;;;5022067;28;20442;-59
2021/10/06 04:27:49;;;;;;;1.50;1.40;;;7.20;99.90;;;;;;5019119;28;20623;-58
2021/10/06 04:30:14;;;;;;;2.40;1.50;;;7.20;99.90;;;;;;5021877;28;20242;-59
2021/10/06 04:32:40;;;;;;;2.30;1.73;;;7.30;99.90;;;;;;5015579;28;20199;-59
2021/10/06 04:35:07;;;;;;;4.20;2.00;;;7.30;99.90;;;;;;5014278;28;20298;-58
2021/10/06 04:37:33;;;;;;;5.20;1.87;;;7.30;99.90;;;;;;5016389;28;20199;-59
2021/10/06 04:39:58;;;;;;;5.53;1.60;;;7.20;99.90;;;;;;5022975;28;20428;-59
2021/10/06 04:42:24;;;;;;;2.43;1.63;;;7.30;99.90;;;;;;5014500;28;20500;-58
2021/10/06 04:44:50;;;;;;;4.10;1.90;;;7.30;99.90;;;;;;5027810;28;20188;-60
2021/10/06 04:47:15;;;;;;;5.97;1.90;;;7.20;99.90;;;;;;5026575;28;20191;-59
2021/10/06 04:49:41;;;;;;;3.83;2.77;;;7.20;99.90;;;;;;5026279;28;20184;-60
2021/10/06 04:52:06;;;;;;;4.93;2.50;;;7.20;99.90;;;;;;5027903;28;20762;-59
2021/10/06 04:54:32;;;;;;;4.30;2.17;;;7.10;99.90;;;;;;5024820;28;20239;-61
2021/10/06 04:56:58;;;;;;;2.77;2.20;;;7.10;99.90;;;;;;5029493;28;20648;-59
2021/10/06 04:59:23;;;;;;;6.20;2.20;;;7.00;99.90;;;;;;5029009;28;20717;-59
2021/10/06 05:01:49;;;;;;;7.70;2.57;;;7.00;99.90;;;;;;5020639;28;20627;-59
2021/10/06 05:04:15;;;;;;;4.70;2.13;;;6.90;99.90;;;;;;5025105;28;20267;-57
2021/10/06 05:06:40;;;;;;;2.10;1.90;;;6.90;99.90;;;;;;5029070;28;20230;-59
2021/10/06 05:09:06;;;;;;;3.10;2.23;;;6.90;99.90;;;;;;5026905;28;20203;-58
2021/10/06 05:11:32;;;;;;;2.30;2.10;;;6.90;99.90;;;;;;5030165;28;20176;-59
2021/10/06 05:13:58;;;;;;;1.90;1.77;;;6.90;99.90;;;;;;5030358;28;20640;-59
2021/10/06 05:16:25;;;;;;;4.27;2.67;;;6.90;99.90;;;;;;5017965;28;20180;-60
2021/10/06 05:18:50;;;;;;;2.30;2.00;;;6.90;99.90;;;;;;5019703;28;20470;-60
2021/10/06 05:21:16;;;;;;;2.40;2.20;;;6.90;99.90;;;;;;5024535;28;20471;-59
2021/10/06 05:23:42;;;;;;;11.80;2.33;;;6.90;99.90;;;;;;5023270;28;20187;-59
2021/10/06 05:26:07;;;;;;;4.80;1.70;;;6.90;99.90;;;;;;5027359;28;20713;-60
2021/10/06 05:28:33;;;;;;;6.17;2.00;;;7.00;99.90;;;;;;5023409;28;20199;-58
2021/10/06 05:30:59;;;;;;;11.03;2.20;;;7.00;99.90;;;;;;5025399;28;20231;-59
2021/10/06 05:33:24;;;;;;;8.47;2.23;;;7.00;99.90;;;;;;5028036;28;20620;-58
2021/10/06 05:35:50;;;;;;;5.63;1.80;;;7.00;99.90;;;;;;5024534;28;20214;-60
2021/10/06 05:38:16;;;;;;;1.50;1.40;;;7.10;99.90;;;;;;5021194;28;20230;-57
2021/10/06 05:40:41;;;;;;;1.90;1.63;;;7.10;99.90;;;;;;5024993;28;20768;-59
2021/10/06 05:43:11;;;;;;;3.10;1.70;;;7.20;99.90;;;;;;5026228;28;20186;-59
2021/10/06 05:45:37;;;;;;;3.73;1.77;;;7.20;99.90;;;;;;5025091;28;20573;-58
2021/10/06 05:48:03;;;;;;;5.27;2.57;;;7.20;99.90;;;;;;5026323;28;20489;-59
2021/10/06 05:50:29;;;;;;;2.67;2.20;;;7.30;99.90;;;;;;5020453;28;20902;-59
2021/10/06 05:52:59;;;;;;;4.97;2.13;;;7.30;99.90;;;;;;5037789;28;20188;-59
2021/10/06 05:55:25;;;;;;;2.40;1.93;;;7.40;99.90;;;;;;5021056;28;20729;-60
2021/10/06 05:57:50;;;;;;;3.00;2.00;;;7.40;99.90;;;;;;5025178;28;20494;-59
2021/10/06 06:00:16;;;;;;;1.73;1.60;;;7.50;99.90;;;;;;5026937;28;20169;-58
2021/10/06 06:02:48;;;;;;;2.33;1.50;;;7.50;99.90;;;;;;5030754;28;20222;-59
2021/10/06 06:05:14;;;;;;;2.63;2.10;;;7.50;99.90;;;;;;5026399;28;20172;-60
2021/10/06 06:07:40;;;;;;;2.10;1.40;;;7.50;99.90;;;;;;5024574;28;20812;-60
2021/10/06 06:10:07;;;;;;;4.13;2.30;;;7.50;99.90;;;;;;5011807;28;20481;-57
2021/10/06 06:12:32;;;;;;;5.80;2.47;;;7.50;99.90;;;;;;5027656;28;20203;-59
2021/10/06 06:14:58;;;;;;;5.10;2.60;;;7.60;99.90;;;;;;5018428;28;20671;-59
2021/10/06 06:17:24;;;;;;;5.50;2.13;;;7.60;99.90;;;;;;5020131;28;20253;-59
2021/10/06 06:19:49;;;;;;;2.60;2.30;;;7.60;99.90;;;;;;5026282;28;20258;-60
2021/10/06 06:22:15;;;;;;;5.80;2.60;;;7.60;99.90;;;;;;5029078;28;20183;-58
2021/10/06 06:24:41;;;;;;;4.70;2.50;;;7.70;99.90;;;;;;5019695;28;20726;-58
2021/10/06 06:27:07;;;;;;;5.00;2.30;;;7.70;99.90;;;;;;5017587;28;20772;-59
2021/10/06 06:29:33;;;;;;;3.73;2.67;;;7.70;99.90;;;;;;5019832;28;20268;-59
2021/10/06 06:31:59;;;;;;;6.53;2.53;;;7.80;99.90;;;;;;5022013;28;20431;-60
2021/10/06 06:34:25;;;;;;;4.33;2.50;;;7.80;99.90;;;;;;5026762;28;20473;-59
2021/10/06 06:36:51;;;;;;;3.20;2.73;;;7.80;99.90;;;;;;5019966;28;20179;-59
2021/10/06 06:39:17;;;;;;;6.53;2.90;;;7.90;99.90;;;;;;5023461;28;20192;-58
2021/10/06 06:41:43;;;;;;;6.07;3.50;;;7.90;99.90;;;;;;5026216;28;20434;-59
2021/10/06 06:44:09;;;;;;;3.13;2.47;;;7.90;99.90;;;;;;5028279;28;20437;-59
2021/10/06 06:46:36;;;;;;;6.87;2.80;;;7.90;99.90;;;;;;5024621;28;20176;-60
2021/10/06 06:49:03;;;;;;;3.90;2.27;;;7.90;99.90;;;;;;5028216;28;20196;-58
2021/10/06 06:51:28;;;;;;;3.80;2.80;;;7.90;99.90;;;;;;5027060;28;20494;-59
2021/10/06 06:53:55;;;;;;;5.47;3.00;;;7.90;99.90;;;;;;5040780;28;20927;-59
2021/10/06 06:56:22;;;;;;;3.00;2.50;;;7.90;99.90;;;;;;5022667;28;20337;-59
2021/10/06 06:58:49;;;;;;;4.13;2.33;;;7.90;99.90;;;;;;5020970;28;20504;-59
2021/10/06 07:01:14;;;;;;;3.53;2.77;;;7.90;99.90;;;;;;5021609;28;20915;-60
2021/10/06 07:03:40;;;;;;;5.53;2.37;;;8.00;99.90;;;;;;5023357;28;20990;-59
2021/10/06 07:06:06;;;;;;;9.30;2.70;;;8.00;99.90;;;;;;5028302;28;20183;-60
2021/10/06 07:08:31;;;;;;;3.83;2.80;;;8.10;99.90;;;;;;5020423;28;20304;-63
2021/10/06 07:10:57;;;;;;;4.47;2.33;;;8.20;99.90;;;;;;5025091;28;20579;-58
2021/10/06 07:13:23;;;;;;;2.50;2.20;;;8.20;99.90;;;;;;5024002;28;20182;-60
2021/10/06 07:15:48;;;;;;;4.27;2.37;;;8.30;99.90;;;;;;5018505;28;20207;-58
2021/10/06 07:18:16;;;;;;;2.90;2.07;;;8.40;99.90;;;;;;5024959;28;20203;-59
2021/10/06 07:20:42;;;;;;;3.67;2.47;;;8.50;99.90;;;;;;5024468;28;20175;-60
2021/10/06 07:23:07;;;;;;;4.30;2.83;;;8.50;99.90;;;;;;5025887;28;20480;-59
2021/10/06 07:25:33;;;;;;;7.17;2.57;;;8.60;99.90;;;;;;5025872;28;20183;-59
2021/10/06 07:27:59;;;;;;;6.17;2.33;;;8.60;99.90;;;;;;5021605;28;20207;-59
2021/10/06 07:30:24;;;;;;;6.00;2.30;;;8.70;99.90;;;;;;5024527;28;20172;-60
2021/10/06 07:32:50;;;;;;;7.87;2.43;;;8.80;99.90;;;;;;5021210;28;20261;-59
2021/10/06 07:35:16;;;;;;;12.50;2.37;;;8.80;99.90;;;;;;5022194;28;20223;-59
2021/10/06 07:37:42;;;;;;;6.30;2.20;;;8.90;99.90;;;;;;5023848;28;20286;-59
2021/10/06 07:40:08;;;;;;;8.30;2.47;;;8.90;99.90;;;;;;5027599;28;20176;-60
2021/10/06 07:42:34;;;;;;;5.33;1.70;;;9.00;99.90;;;;;;5027493;28;20199;-59
2021/10/06 07:44:59;;;;;;;2.10;1.53;;;9.00;99.90;;;;;;5027378;28;20497;-59
2021/10/06 07:47:25;;;;;;;2.00;1.77;;;9.10;99.90;;;;;;5025750;28;20243;-59
2021/10/06 07:49:52;;;;;;;7.80;1.90;;;9.10;99.90;;;;;;5023901;28;20675;-59
2021/10/06 07:52:17;;;;;;;4.30;1.90;;;9.20;99.90;;;;;;5020363;28;20434;-59
2021/10/06 07:54:43;;;;;;;3.20;1.73;;;9.30;99.90;;;;;;5026709;28;20466;-60
2021/10/06 07:57:09;;;;;;;3.37;1.77;;;9.30;99.90;;;;;;5023425;28;20655;-60
2021/10/06 07:59:34;;;;;;;7.80;2.13;;;9.30;99.90;;;;;;5023120;28;20253;-59
2021/10/06 08:02:00;;;;;;;3.03;1.70;;;9.30;99.90;;;;;;5024833;28;20645;-59
2021/10/06 08:04:27;;;;;;;3.03;1.50;;;9.30;99.90;;;;;;5038367;28;20230;-59
2021/10/06 08:06:53;;;;;;;5.17;2.17;;;9.30;99.90;;;;;;5022946;28;20438;-59
2021/10/06 08:09:19;;;;;;;3.03;1.87;;;9.30;99.90;;;;;;5028084;28;20730;-59
2021/10/06 08:11:45;;;;;;;5.67;1.80;;;9.40;99.90;;;;;;5025472;28;20179;-59
2021/10/06 08:14:11;;;;;;;6.00;2.00;;;9.50;99.90;;;;;;5023468;28;20435;-59
2021/10/06 08:16:37;;;;;;;3.77;1.70;;;9.50;99.90;;;;;;5019369;28;20961;-59
2021/10/06 08:19:04;;;;;;;4.00;1.80;;;9.50;99.90;;;;;;5023090;28;20454;-59
2021/10/06 08:21:30;;;;;;;11.33;1.87;;;9.60;99.90;;;;;;5026771;28;20262;-60
2021/10/06 08:23:56;;;;;;;1.83;1.60;;;9.70;99.90;;;;;;5027944;28;20493;-61
2021/10/06 08:26:22;;;;;;;6.37;1.83;;;9.80;99.90;;;;;;5024391;28;20465;-59
2021/10/06 08:28:48;;;;;;;3.37;1.70;;;9.90;99.90;;;;;;5026664;28;20274;-59
2021/10/06 08:31:13;;;;;;;2.40;1.50;;;10.00;99.90;;;;;;5025035;28;20737;-59
2021/10/06 08:33:41;;;;;;;2.43;1.80;;;10.10;99.90;;;;;;5019514;28;20184;-59
2021/10/06 08:36:07;;;;;;;8.90;1.60;;;10.20;99.90;;;;;;5019893;28;20549;-60
2021/10/06 08:38:34;;;;;;;2.70;1.60;;;10.30;99.90;;;;;;5021119;28;20473;-59
2021/10/06 08:41:00;;;;;;;3.13;1.80;;;10.30;99.90;;;;;;5024853;28;20695;-55
2021/10/06 08:43:25;;;;;;;3.20;1.47;;;10.40;99.90;;;;;;5023729;28;20426;-65
2021/10/06 08:45:52;;;;;;;6.37;1.70;;;10.40;99.90;;;;;;5022331;28;20176;-56
2021/10/06 08:48:17;;;;;;;3.63;2.60;;;10.50;99.90;;;;;;5015948;28;20192;-56
2021/10/06 08:50:43;;;;;;;6.93;1.67;;;10.50;99.90;;;;;;5018296;28;20438;-60
2021/10/06 08:53:09;;;;;;;9.13;1.73;;;10.50;99.90;;;;;;5019238;28;20176;-59
2021/10/06 08:55:35;;;;;;;3.20;1.30;;;10.50;99.90;;;;;;5026445;28;20245;-60
2021/10/06 08:58:06;;;;;;;12.93;1.60;;;10.50;99.90;;;;;;5025286;28;20212;-59
2021/10/06 09:00:59;;;;;;;10.77;1.97;;;10.40;99.90;;;;;;5022324;28;20431;-60
2021/10/06 09:03:27;;;;;;;4.37;1.30;;;10.30;99.60;;;;;;5022463;28;20450;-61
2021/10/06 09:06:08;;;;;;;3.30;1.60;;;10.20;99.90;;;;;;5029676;28;20514;-60
2021/10/06 09:08:36;;;;;;;3.00;1.63;;;10.20;99.90;;;;;;5021217;28;20453;-61
2021/10/06 09:11:04;;;;;;;2.70;1.70;;;10.20;99.90;;;;;;5028913;28;20434;-60
2021/10/06 09:13:35;;;;;;;3.70;1.70;;;10.20;99.90;;;;;;5023713;28;20820;-59
2021/10/06 09:16:01;;;;;;;5.33;2.07;;;10.20;99.90;;;;;;5020117;28;20990;-60
2021/10/06 09:18:30;;;;;;;1.63;1.53;;;10.30;99.90;;;;;;5024915;28;20458;-59
2021/10/06 09:21:09;;;;;;;5.43;2.30;;;10.30;99.90;;;;;;5021424;28;20176;-60
2021/10/06 09:23:41;;;;;;;2.00;1.43;;;10.50;99.90;;;;;;5032894;28;20441;-60
2021/10/06 09:26:12;;;;;;;6.10;1.70;;;10.60;99.90;;;;;;5022946;28;20442;-60
2021/10/06 09:28:41;;;;;;;7.93;1.57;;;10.70;99.90;;;;;;5023519;28;20450;-60
2021/10/06 09:31:19;;;;;;;6.03;1.70;;;10.90;99.90;;;;;;5021365;28;20426;-60
2021/10/06 09:33:56;;;;;;;2.10;1.30;;;10.90;99.90;;;;;;5028386;28;20430;-59
2021/10/06 09:36:25;;;;;;;9.43;3.10;;;11.00;98.80;;;;;;5028554;28;20565;-60
2021/10/06 09:38:56;;;;;;;4.73;1.70;;;11.00;98.80;;;;;;5023571;28;20493;-60
2021/10/06 09:41:38;;;;;;;6.60;1.60;;;11.10;99.30;;;;;;5026212;28;20434;-61
2021/10/06 09:44:10;;;;;;;1.60;1.50;;;11.10;99.30;;;;;;5020335;28;20430;-60
2021/10/06 09:46:50;;;;;;;7.13;1.80;;;11.00;98.60;;;;;;5027812;28;20472;-59
2021/10/06 09:49:34;;;;;;;3.90;1.63;;;11.00;98.10;;;;;;5023950;28;20476;-59
2021/10/06 09:52:23;;;;;;;2.47;1.47;;;11.00;98.30;;;;;;5026290;28;20423;-60
2021/10/06 09:55:02;;;;;;;3.80;1.47;;;11.00;97.00;;;;;;5028558;28;20528;-59
2021/10/06 09:57:41;;;;;;;2.60;1.30;;;11.00;97.80;;;;;;5027223;28;20588;-60
2021/10/06 10:00:17;;;;;;;4.20;1.47;;;11.00;94.90;;;;;;5026343;28;21207;-59
2021/10/06 10:02:43;;;;;;;5.00;3.10;;;11.00;94.40;;;;;;5023662;28;20441;-58
2021/10/06 10:05:10;;;;;;;5.10;1.60;;;11.10;94.70;;;;;;5019440;28;20435;-59
2021/10/06 10:07:36;;;;;;;2.40;1.10;;;11.20;94.00;;;;;;5023526;28;20455;-59
2021/10/06 10:10:04;;;;;;;1.57;1.20;;;11.50;92.40;;;;;;5025375;28;20508;-60
2021/10/06 10:12:30;;;;;;;2.07;1.30;;;11.80;81.20;;;;;;5027240;28;20569;-60
2021/10/06 10:14:57;;;;;;;9.50;1.27;;;11.90;82.10;;;;;;5042943;28;20451;-60
2021/10/06 10:17:23;;;;;;;2.50;1.20;;;12.00;77.90;;;;;;5024391;28;20187;-60
2021/10/06 10:19:57;;;;;;;1.83;1.70;;;12.10;75.60;;;;;;5046003;28;20437;-60
2021/10/06 10:22:30;;;;;;;6.73;1.10;;;12.20;77.60;;;;;;5021507;28;20475;-60
2021/10/06 10:24:56;;;;;;;2.57;1.20;;;12.30;71.90;;;;;;5020929;28;20441;-59
2021/10/06 10:27:24;;;;;;;4.10;1.47;;;12.60;73.50;;;;;;5019119;28;20503;-60
2021/10/06 10:29:56;;;;;;;2.50;1.23;;;12.80;62.60;;;;;;5024540;28;20415;-59
2021/10/06 10:32:26;;;;;;;4.83;1.33;;;12.80;63.20;;;;;;5021369;28;20428;-60
2021/10/06 10:35:31;;;;;;;2.27;1.60;;;12.90;63.80;;;;;;5029129;28;20454;-60
2021/10/06 10:38:00;;;;;;;6.63;1.53;;;12.90;65.30;;;;;;5004300;28;20446;-59
2021/10/06 10:40:34;;;;;;;3.47;1.77;;;12.90;64.70;;;;;;5021442;28;20508;-60
2021/10/06 10:43:13;;;;;;;3.93;1.23;;;12.80;61.50;;;;;;5018658;28;20431;-60
2021/10/06 10:45:43;;;;;;;1.43;1.33;;;12.90;66.80;;;;;;5014070;28;20428;-60
2021/10/06 10:48:15;;;;;;;1.37;1.27;;;12.90;62.10;;;;;;5027320;28;21042;-60
2021/10/06 10:50:43;;;;;;;2.93;1.83;;;12.90;58.70;;;;;;5024959;28;20516;-60
2021/10/06 10:53:14;;;;;;;2.10;1.00;;;12.80;59.70;;;;;;5035270;28;20533;-59
2021/10/06 10:56:02;;;;;;;2.53;1.10;;;12.80;63.90;;;;;;5042379;28;20982;-61
2021/10/06 10:58:35;;;;;;;7.30;1.40;;;12.80;63.90;;;;;;5040079;28;20460;-59
2021/10/06 11:01:04;;;;;;;6.77;1.40;;;12.60;67.70;;;;;;5024575;28;20495;-59
2021/10/06 11:03:31;;;;;;;2.40;1.00;;;12.50;69.60;;;;;;5021091;28;20438;-60
2021/10/06 11:05:57;;;;;;;2.30;1.10;;;12.30;68.40;;;;;;5026085;28;20418;-61
2021/10/06 11:08:31;;;;;;;3.30;1.40;;;12.20;75.80;;;;;;5023606;28;20505;-60
2021/10/06 11:11:09;;;;;;;3.20;1.30;;;12.20;74.50;;;;;;5022993;28;20428;-59
2021/10/06 11:13:37;;;;;;;1.20;1.10;;;12.30;75.20;;;;;;5019432;28;20841;-59
2021/10/06 11:16:04;;;;;;;1.70;1.10;;;12.30;75.10;;;;;;5025630;28;20477;-59
2021/10/06 11:18:44;;;;;;;2.47;1.50;;;12.40;76.20;;;;;;5017013;28;20473;-59
2021/10/06 11:21:11;;;;;;;2.50;1.20;;;12.50;74.30;;;;;;5012601;28;20441;-60
2021/10/06 11:23:37;;;;;;;2.73;1.30;;;12.50;72.00;;;;;;5022914;28;20427;-62
2021/10/06 11:26:07;;;;;;;1.37;1.23;;;12.60;73.20;;;;;;5016565;28;20528;-61
2021/10/06 11:28:43;;;;;;;1.60;0.90;;;12.50;70.80;;;;;;5022383;28;20508;-61
2021/10/06 11:31:12;;;;;;;3.17;1.30;;;12.50;70.00;;;;;;5020628;28;20422;-59
2021/10/06 11:33:39;;;;;;;2.70;1.60;;;12.70;77.30;;;;;;5019388;28;20795;-58
2021/10/06 11:36:27;;;;;;;2.10;1.17;;;13.40;84.50;;;;;;5018504;28;20454;-61
2021/10/06 11:39:11;;;;;;;6.53;1.50;;;14.60;71.10;;;;;;5009919;28;21037;-59
2021/10/06 11:41:45;;;;;;;2.07;1.10;;;15.70;59.90;;;;;;5021826;28;20425;-60
2021/10/06 11:44:16;;;;;;;1.40;1.00;;;16.70;55.80;;;;;;5021231;28;20426;-59
2021/10/06 11:46:42;;;;;;;0.93;0.90;;;17.40;52.90;;;;;;5026461;28;20418;-60
2021/10/06 11:49:08;;;;;;;7.27;1.40;;;17.70;51.50;;;;;;5020060;28;20450;-60
2021/10/06 11:51:46;;;;;;;2.40;1.00;;;18.10;49.70;;;;;;5023766;28;20549;-58
2021/10/06 11:54:14;;;;;;;4.00;1.03;;;18.40;49.00;;;;;;5020339;28;20438;-60
2021/10/06 11:56:40;;;;;;;3.73;1.30;;;18.60;48.10;;;;;;5019186;28;20427;-59
2021/10/06 11:59:17;;;;;;;4.27;1.10;;;18.70;47.20;;;;;;5022622;28;20449;-59
2021/10/06 12:02:00;;;;;;;3.20;1.37;;;18.10;45.70;;;;;;5022537;28;20441;-58
2021/10/06 12:04:28;;;;;;;3.00;0.97;;;17.10;47.80;;;;;;5011462;28;20422;-59
2021/10/06 12:06:59;;;;;;;13.07;1.40;;;16.20;51.80;;;;;;5017818;28;20419;-59
2021/10/06 12:09:27;;;;;;;3.83;1.40;;;15.20;56.10;;;;;;5023057;28;20987;-58
2021/10/06 12:11:52;;;;;;;0.90;0.90;;;14.30;67.70;;;;;;5023197;28;20425;-58
2021/10/06 12:14:22;;;;;;;2.40;1.00;;;13.60;76.20;;;;;;5021058;28;20423;-58
2021/10/06 12:17:06;;;;;;;3.30;1.20;;;13.10;89.00;;;;;;5019648;28;20193;-58
2021/10/06 12:19:33;;;;;;;4.43;1.03;;;12.60;90.90;;;;;;5021050;28;20581;-58
2021/10/06 12:21:59;;;;;;;1.00;1.00;;;12.40;92.70;;;;;;5021603;28;20796;-59
2021/10/06 12:24:29;;;;;;;2.77;1.30;;;12.20;93.70;;;;;;5025605;28;20811;-58
2021/10/06 12:26:55;;;;;;;2.80;1.70;;;12.00;95.70;;;;;;5016620;28;20427;-58
2021/10/06 12:29:27;;;;;;;1.20;1.10;;;11.90;96.00;;;;;;5017430;28;20863;-61
2021/10/06 12:31:55;;;;;;;1.37;1.10;;;11.80;96.40;;;;;;5018842;28;20441;-59
2021/10/06 12:34:25;;;;;;;4.93;1.10;;;11.80;94.90;;;;;;5022806;28;20426;-60
2021/10/06 12:36:54;;;;;;;1.23;1.10;;;11.80;95.90;;;;;;5016312;28;20441;-59
2021/10/06 12:39:29;;;;;;;1.03;1.00;;;11.90;96.80;;;;;;5020905;28;20446;-61
2021/10/06 12:41:57;;;;;;;1.20;1.03;;;12.40;96.30;;;;;;5025846;28;20498;-60
2021/10/06 12:44:32;;;;;;;1.10;1.00;;;13.10;93.80;;;;;;5026578;28;20466;-59
2021/10/06 12:46:59;;;;;;;3.47;1.30;;;13.90;89.50;;;;;;5025534;28;20496;-60
2021/10/06 12:49:28;;;;;;;1.57;1.00;;;14.70;84.50;;;;;;5022285;28;20919;-60
2021/10/06 12:52:04;;;;;;;3.83;1.10;;;15.30;72.20;;;;;;5021111;28;20525;-60
2021/10/06 12:54:32;;;;;;;1.33;1.10;;;15.80;64.70;;;;;;5025394;28;20761;-58
2021/10/06 12:57:04;;;;;;;2.30;1.17;;;16.30;59.00;;;;;;5022272;28;20430;-60